Time;durP1;ratioP1;P1;durP2;ratioP2;P2;SDS_P1;SDS_P2;PMS_P1;PMS_P2;Temp;Humidity;BMP_temperature;BMP_pressure;BME280_temperature;BME280_humidity;BME280_pressure;Samples;Min_cycle;Max_cycle;Signal;HPM_P1;HPM_P2
2020/12/24 03:42:44;;;;;;;163.35;48.17;;;;;;;;;;5073857;23;20226;-95
2020/12/24 03:45:11;;;;;;;168.60;56.58;;;;;;;;;;5434962;23;20236;-96
2020/12/24 03:47:38;;;;;;;151.40;56.20;;;;;;;;;;4989736;28;20209;-96
2020/12/24 03:50:04;;;;;;;123.35;57.05;;;;;;;;;;4977017;28;20205;-96
2020/12/24 03:52:30;;;;;;;143.13;59.88;;;;;;;;;;4980267;28;20211;-96
2020/12/24 03:55:00;;;;;;;160.75;60.65;;;;;;;;;;4987289;28;20210;-96
2020/12/24 03:57:26;;;;;;;131.55;54.28;;;;;;;;;;4990603;28;20220;-95
2020/12/24 03:59:52;;;;;;;120.40;54.43;;;;;;;;;;4988580;28;20205;-96
2020/12/24 04:02:19;;;;;;;120.55;54.00;;;;;;;;;;4988148;28;20499;-96
2020/12/24 04:04:45;;;;;;;96.35;49.58;;;;;;;;;;4988218;28;20206;-96
2020/12/24 04:07:11;;;;;;;112.97;51.72;;;;;;;;;;4982957;28;20264;-96
2020/12/24 04:09:37;;;;;;;113.10;50.40;;;;;;;;;;4984793;28;20208;-96
2020/12/24 04:12:04;;;;;;;112.20;49.15;;;;;;;;;;4994992;28;20228;-96
2020/12/24 04:14:35;;;;;;;110.82;46.55;;;;;;;;;;5011993;28;20285;-96
2020/12/24 04:17:03;;;;;;;128.57;50.13;;;;;;;;;;5003768;28;20268;-96
2020/12/24 04:20:04;;;;;;;130.98;49.65;;;;;;;;;;4998896;28;20308;-96
2020/12/24 04:22:50;;;;;;;167.27;54.08;;;;;;;;;;4974144;28;20268;-96
2020/12/24 04:25:17;;;;;;;142.73;51.90;;;;;;;;;;4989565;28;20232;-96
2020/12/24 04:27:45;;;;;;;116.10;47.85;;;;;;;;;;4980365;28;20212;-96
2020/12/24 04:36:05;;;;;;;111.13;46.45;;;;;;;;;;4981212;28;20224;-96
2020/12/24 04:38:50;;;;;;;104.15;47.40;;;;;;;;;;4981157;28;20205;-96
2020/12/24 04:41:17;;;;;;;109.10;45.17;;;;;;;;;;5005968;28;20208;-96
2020/12/24 04:46:55;;;;;;;140.38;49.03;;;;;;;;;;5000043;28;20242;-96
2020/12/24 04:52:45;;;;;;;150.77;49.85;;;;;;;;;;5016077;28;20198;-96
2020/12/24 04:55:11;;;;;;;98.03;51.00;;;;;;;;;;5001184;28;20212;-96
2020/12/24 04:57:58;;;;;;;144.90;50.25;;;;;;;;;;4978608;28;20219;-96
2020/12/24 05:08:53;;;;;;;106.85;40.38;;;;;;;;;;5762069;23;20267;-96
2020/12/24 05:17:07;;;;;;;134.88;43.25;;;;;;;;;;5182138;23;20225;-96
2020/12/24 05:19:35;;;;;;;123.03;40.95;;;;;;;;;;5018789;28;20205;-96
2020/12/24 05:22:16;;;;;;;104.05;39.75;;;;;;;;;;5025207;23;20235;-96
2020/12/24 05:24:45;;;;;;;104.88;39.75;;;;;;;;;;4999687;28;20184;-96
2020/12/24 05:27:12;;;;;;;107.15;40.13;;;;;;;;;;5019149;28;20221;-95
2020/12/24 05:29:40;;;;;;;109.70;37.70;;;;;;;;;;4998142;28;20196;-96
2020/12/24 05:32:06;;;;;;;130.45;37.92;;;;;;;;;;4995762;28;20205;-96
2020/12/24 05:34:34;;;;;;;124.03;40.63;;;;;;;;;;4967234;28;20237;-96
2020/12/24 05:37:10;;;;;;;157.45;43.55;;;;;;;;;;4998566;28;20236;-96
2020/12/24 05:39:37;;;;;;;97.18;38.88;;;;;;;;;;4999912;28;20220;-96
2020/12/24 05:42:04;;;;;;;116.93;39.55;;;;;;;;;;5018534;28;20194;-96
2020/12/24 05:44:31;;;;;;;82.57;35.45;;;;;;;;;;4991807;28;20179;-96
2020/12/24 05:46:58;;;;;;;124.85;39.28;;;;;;;;;;4996775;28;20216;-96
2020/12/24 05:49:24;;;;;;;77.53;34.20;;;;;;;;;;4989433;28;20222;-96
2020/12/24 05:51:52;;;;;;;114.22;39.33;;;;;;;;;;4983084;28;20211;-96
2020/12/24 05:54:19;;;;;;;125.47;37.83;;;;;;;;;;4991729;28;20232;-96
2020/12/24 05:56:46;;;;;;;127.07;40.63;;;;;;;;;;4968886;28;20208;-96
2020/12/24 06:02:12;;;;;;;144.52;38.60;;;;;;;;;;5000141;28;20201;-96
2020/12/24 06:05:04;;;;;;;113.47;38.72;;;;;;;;;;4993963;28;20208;-96
2020/12/24 06:15:17;;;;;;;107.85;39.15;;;;;;;;;;5027640;28;20215;-96
2020/12/24 06:17:44;;;;;;;103.53;36.08;;;;;;;;;;5028494;28;20215;-96
2020/12/24 06:20:15;;;;;;;95.82;37.97;;;;;;;;;;5028692;28;20241;-96
2020/12/24 06:22:41;;;;;;;77.07;36.80;;;;;;;;;;5006798;28;21035;-96
2020/12/24 06:25:33;;;;;;;87.28;33.65;;;;;;;;;;5025067;28;20328;-96
2020/12/24 06:28:18;;;;;;;81.35;33.30;;;;;;;;;;5011214;28;20195;-96
2020/12/24 06:36:35;;;;;;;111.13;34.65;;;;;;;;;;5014847;28;20205;-96
2020/12/24 06:41:44;;;;;;;101.13;33.42;;;;;;;;;;5010032;28;20204;-96
2020/12/24 06:47:39;;;;;;;86.85;31.70;;;;;;;;;;4981333;28;20198;-96
2020/12/24 06:53:31;;;;;;;69.47;28.50;;;;;;;;;;5026812;28;20214;-96
2020/12/24 06:59:05;;;;;;;78.93;32.72;;;;;;;;;;5026569;23;20247;-96
2020/12/24 07:04:37;;;;;;;123.95;37.30;;;;;;;;;;4932126;29;20284;-96
2020/12/24 07:07:04;;;;;;;126.07;37.45;;;;;;;;;;4996386;28;20214;-96
2020/12/24 07:09:48;;;;;;;142.25;37.47;;;;;;;;;;5005913;28;20210;-97
2020/12/24 07:13:07;;;;;;;104.07;33.85;;;;;;;;;;4994068;28;20254;-96
2020/12/24 07:18:46;;;;;;;122.35;41.35;;;;;;;;;;5014903;28;20595;-96
2020/12/24 07:21:15;;;;;;;114.60;40.72;;;;;;;;;;5016035;28;20184;-96
2020/12/24 07:32:42;;;;;;;121.40;39.30;;;;;;;;;;5029880;23;20214;-96
2020/12/24 07:35:16;;;;;;;96.07;40.72;;;;;;;;;;5022007;28;20194;-96
2020/12/24 07:37:45;;;;;;;87.28;38.75;;;;;;;;;;4996730;28;20207;-96
2020/12/24 07:40:11;;;;;;;109.07;41.15;;;;;;;;;;5027706;28;20188;-96
2020/12/24 07:46:12;;;;;;;112.03;45.70;;;;;;;;;;5498013;23;20257;-96
2020/12/24 08:03:34;;;;;;;121.90;51.95;;;;;;;;;;1453788;23;20520;-93
2020/12/24 08:06:06;;;;;;;106.70;44.20;;;;;;;;;;5286206;23;20257;-96
2020/12/24 08:11:25;;;;;;;125.10;43.63;;;;;;;;;;5938968;23;20251;-96
2020/12/24 08:13:54;;;;;;;99.30;38.80;;;;;;;;;;5038516;28;20233;-96
2020/12/24 08:16:22;;;;;;;105.25;43.53;;;;;;;;;;5037228;28;20470;-96
2020/12/24 08:18:51;;;;;;;117.53;40.47;;;;;;;;;;5035874;28;20227;-96
2020/12/24 08:21:25;;;;;;;112.90;45.85;;;;;;;;;;5237333;23;21131;-96
2020/12/24 08:26:48;;;;;;;95.00;35.85;;;;;;;;;;5034476;28;20213;-96
2020/12/24 08:29:14;;;;;;;78.75;35.90;;;;;;;;;;5022959;28;20207;-96
2020/12/24 08:31:47;;;;;;;78.28;31.90;;;;;;;;;;5031619;28;20190;-96
2020/12/24 08:34:13;;;;;;;70.53;30.65;;;;;;;;;;5029102;28;20231;-96
2020/12/24 08:39:50;;;;;;;67.70;29.60;;;;;;;;;;5038192;28;20215;-96
2020/12/24 08:47:37;;;;;;;85.05;34.13;;;;;;;;;;5019099;28;20210;-95
2020/12/24 08:50:05;;;;;;;91.13;35.28;;;;;;;;;;5128347;22;20219;-94
2020/12/24 08:52:34;;;;;;;83.35;36.92;;;;;;;;;;5019250;28;20181;-96
2020/12/24 08:55:03;;;;;;;89.90;37.67;;;;;;;;;;5072466;23;20237;-96
2020/12/24 08:57:29;;;;;;;100.18;43.78;;;;;;;;;;5149853;22;20264;-96
2020/12/24 08:59:56;;;;;;;95.37;36.80;;;;;;;;;;5047259;23;20217;-96
2020/12/24 09:02:26;;;;;;;90.50;35.80;;;;;;;;;;5042571;28;20457;-96
2020/12/24 09:10:08;;;;;;;83.77;38.73;;;;;;;;;;5047432;23;20326;-96
2020/12/24 09:12:34;;;;;;;84.15;38.28;;;;;;;;;;5045869;28;20464;-95
2020/12/24 09:15:05;;;;;;;77.97;34.90;;;;;;;;;;5048301;28;20827;-96
2020/12/24 09:17:31;;;;;;;84.40;37.67;;;;;;;;;;5048477;28;20450;-96
2020/12/24 09:20:01;;;;;;;77.13;37.90;;;;;;;;;;5042160;28;20211;-96
2020/12/24 09:25:03;;;;;;;81.03;39.00;;;;;;;;;;5416856;22;20483;-96
2020/12/24 09:31:05;;;;;;;86.27;39.67;;;;;;;;;;5085855;23;20654;-96
2020/12/24 09:33:34;;;;;;;88.10;41.00;;;;;;;;;;5016941;28;20522;-96
2020/12/24 10:04:48;;;;;;;80.88;39.28;;;;;;;;;;4969713;28;20247;-94
2020/12/24 10:07:14;;;;;;;77.28;40.40;;;;;;;;;;4967584;28;20215;-93
2020/12/24 10:09:40;;;;;;;82.85;40.80;;;;;;;;;;4980018;28;20210;-92
2020/12/24 10:12:06;;;;;;;85.43;42.73;;;;;;;;;;4980780;28;20211;-96
2020/12/24 10:14:35;;;;;;;90.77;43.60;;;;;;;;;;4984433;28;20512;-96
2020/12/24 10:17:08;;;;;;;86.60;41.93;;;;;;;;;;4989642;28;20552;-96
2020/12/24 10:22:24;;;;;;;78.77;40.13;;;;;;;;;;5170836;23;20486;-96
2020/12/24 10:51:19;;;;;;;68.30;34.40;;;;;;;;;;5790159;23;20545;-96
2020/12/24 10:53:46;;;;;;;75.15;37.70;;;;;;;;;;5019401;28;20488;-95
2020/12/24 10:56:12;;;;;;;68.80;36.33;;;;;;;;;;5021087;28;20200;-96
2020/12/24 11:01:26;;;;;;;67.30;34.40;;;;;;;;;;5041188;23;21055;-96
2020/12/24 11:03:53;;;;;;;62.50;34.60;;;;;;;;;;5000273;28;20455;-96
2020/12/24 11:06:20;;;;;;;68.43;34.80;;;;;;;;;;5002796;28;20454;-96
2020/12/24 11:08:46;;;;;;;70.60;36.03;;;;;;;;;;5001844;28;20464;-96
2020/12/24 11:11:13;;;;;;;70.97;37.43;;;;;;;;;;4998174;28;20463;-96
2020/12/24 11:13:40;;;;;;;71.43;37.33;;;;;;;;;;5001377;28;20533;-96
2020/12/24 11:16:06;;;;;;;78.67;37.70;;;;;;;;;;5000751;28;20451;-96
2020/12/24 11:18:33;;;;;;;59.47;35.77;;;;;;;;;;5002537;28;20475;-96
2020/12/24 11:20:59;;;;;;;79.40;41.33;;;;;;;;;;5001050;28;20717;-96
2020/12/24 11:23:26;;;;;;;60.90;34.40;;;;;;;;;;4988568;28;20468;-96
2020/12/24 11:28:39;;;;;;;64.50;34.30;;;;;;;;;;5006940;28;20457;-96
2020/12/24 11:33:45;;;;;;;53.37;33.07;;;;;;;;;;5000099;28;20499;-96
2020/12/24 11:36:11;;;;;;;57.43;35.23;;;;;;;;;;5000766;28;20957;-96
2020/12/24 11:38:38;;;;;;;65.33;38.50;;;;;;;;;;4998517;28;20515;-95
2020/12/24 11:41:04;;;;;;;58.37;34.30;;;;;;;;;;5002419;28;20805;-96
2020/12/24 11:43:31;;;;;;;53.63;33.00;;;;;;;;;;4980075;28;20468;-96
2020/12/24 11:45:57;;;;;;;61.73;34.07;;;;;;;;;;4985298;28;20480;-96
2020/12/24 11:48:23;;;;;;;59.13;33.17;;;;;;;;;;5019634;28;20452;-96
2020/12/24 11:50:49;;;;;;;58.47;33.97;;;;;;;;;;5022609;28;20448;-96
2020/12/24 11:53:15;;;;;;;76.33;45.87;;;;;;;;;;5001424;28;20457;-96
2020/12/24 11:55:43;;;;;;;79.47;47.50;;;;;;;;;;4985353;28;20462;-96
2020/12/24 11:58:09;;;;;;;142.20;89.03;;;;;;;;;;4986861;28;20873;-96
2020/12/24 12:00:38;;;;;;;127.00;75.97;;;;;;;;;;4998771;28;20785;-95
2020/12/24 12:03:04;;;;;;;67.13;38.83;;;;;;;;;;5002484;28;20457;-94
2020/12/24 12:05:30;;;;;;;67.20;37.27;;;;;;;;;;4995970;28;20448;-96
2020/12/24 12:07:56;;;;;;;71.73;39.57;;;;;;;;;;4986322;28;20457;-95
2020/12/24 12:10:22;;;;;;;68.13;42.23;;;;;;;;;;4968868;28;20457;-96
2020/12/24 12:12:49;;;;;;;73.60;37.03;;;;;;;;;;4990670;28;20433;-95
2020/12/24 12:15:15;;;;;;;68.40;37.20;;;;;;;;;;4992072;28;20503;-96
2020/12/24 12:17:42;;;;;;;76.00;39.53;;;;;;;;;;5003506;28;20449;-95
2020/12/24 12:20:08;;;;;;;70.50;38.87;;;;;;;;;;5002395;28;20463;-96
2020/12/24 12:22:34;;;;;;;69.20;36.40;;;;;;;;;;4996913;28;20456;-94
2020/12/24 12:25:00;;;;;;;69.20;39.20;;;;;;;;;;5001339;28;20529;-95
2020/12/24 12:27:27;;;;;;;71.67;38.90;;;;;;;;;;5000480;28;20453;-95
2020/12/24 12:29:54;;;;;;;76.90;40.80;;;;;;;;;;5002025;28;20667;-96
2020/12/24 12:32:20;;;;;;;66.83;38.70;;;;;;;;;;4998644;28;20456;-96
2020/12/24 12:34:49;;;;;;;66.40;39.80;;;;;;;;;;5003898;28;20503;-96
2020/12/24 12:37:17;;;;;;;82.63;43.53;;;;;;;;;;5001454;28;20463;-95
2020/12/24 12:39:43;;;;;;;95.90;53.60;;;;;;;;;;4987941;28;20441;-96
2020/12/24 12:42:09;;;;;;;113.10;63.40;;;;;;;;;;4987794;28;20449;-96
2020/12/24 12:44:35;;;;;;;88.47;48.67;;;;;;;;;;5011464;28;20554;-96
2020/12/24 12:47:07;;;;;;;89.67;48.83;;;;;;;;;;5027659;28;20459;-96
2020/12/24 12:49:34;;;;;;;98.20;53.30;;;;;;;;;;4990390;28;20475;-96
2020/12/24 12:52:01;;;;;;;95.67;52.07;;;;;;;;;;5003368;28;20449;-96
2020/12/24 12:54:27;;;;;;;88.67;50.30;;;;;;;;;;5000682;28;20943;-96
2020/12/24 12:56:53;;;;;;;92.00;48.90;;;;;;;;;;4991389;28;20517;-96
2020/12/24 12:59:28;;;;;;;118.97;62.07;;;;;;;;;;4994087;28;20436;-95
2020/12/24 13:02:00;;;;;;;123.90;65.67;;;;;;;;;;4990961;28;20481;-96
2020/12/24 13:04:27;;;;;;;123.77;61.60;;;;;;;;;;4971857;28;20448;-96
2020/12/24 13:06:53;;;;;;;114.77;60.10;;;;;;;;;;5005169;28;20449;-95
2020/12/24 13:09:20;;;;;;;120.63;61.90;;;;;;;;;;4988385;28;20507;-96
2020/12/24 13:11:47;;;;;;;120.93;65.97;;;;;;;;;;4973912;28;20477;-96
2020/12/24 13:14:21;;;;;;;140.63;77.67;;;;;;;;;;5002648;28;20468;-95
2020/12/24 13:16:48;;;;;;;131.40;68.37;;;;;;;;;;5024407;28;20514;-96
2020/12/24 13:19:15;;;;;;;137.87;75.47;;;;;;;;;;5033756;28;20444;-96
2020/12/24 13:24:24;;;;;;;144.57;70.93;;;;;;;;;;5027846;28;20460;-96
2020/12/24 13:27:01;;;;;;;133.50;65.33;;;;;;;;;;5014286;28;20467;-96
2020/12/24 13:32:34;;;;;;;125.20;62.50;;;;;;;;;;5003297;28;20451;-96
2020/12/24 13:35:00;;;;;;;123.90;64.80;;;;;;;;;;5030026;28;20496;-95
2020/12/24 13:37:27;;;;;;;133.73;64.50;;;;;;;;;;5025284;28;20501;-96
2020/12/24 13:39:53;;;;;;;115.93;59.87;;;;;;;;;;4981571;28;20457;-96
2020/12/24 13:42:23;;;;;;;114.37;59.13;;;;;;;;;;4989423;28;20456;-96
2020/12/24 13:44:53;;;;;;;109.30;56.03;;;;;;;;;;5004342;28;20524;-96
2020/12/24 13:47:23;;;;;;;114.17;54.43;;;;;;;;;;5014960;28;20504;-96
2020/12/24 13:49:49;;;;;;;114.57;54.23;;;;;;;;;;5006792;28;20533;-96
2020/12/24 13:52:16;;;;;;;142.13;67.37;;;;;;;;;;4999214;28;20504;-96
2020/12/24 13:57:25;;;;;;;122.10;58.07;;;;;;;;;;5078320;23;20554;-96
2020/12/24 13:59:51;;;;;;;124.73;57.87;;;;;;;;;;5020538;28;20457;-96
2020/12/24 14:02:17;;;;;;;119.77;59.07;;;;;;;;;;4993731;28;20631;-96
2020/12/24 14:04:43;;;;;;;126.87;61.93;;;;;;;;;;5013702;28;20536;-96
2020/12/24 14:07:12;;;;;;;136.33;69.50;;;;;;;;;;5009298;28;20463;-96
2020/12/24 14:09:39;;;;;;;148.63;71.10;;;;;;;;;;5008657;28;20453;-96
2020/12/24 14:15:09;;;;;;;161.80;70.67;;;;;;;;;;4993505;28;20497;-96
2020/12/24 14:17:35;;;;;;;161.87;70.27;;;;;;;;;;4973130;28;20434;-96
2020/12/24 14:20:02;;;;;;;153.90;70.80;;;;;;;;;;4970222;29;20443;-96
2020/12/24 14:22:28;;;;;;;163.50;73.27;;;;;;;;;;4974984;29;20459;-96
2020/12/24 14:24:55;;;;;;;153.73;69.60;;;;;;;;;;4975435;29;20473;-96
2020/12/24 14:27:25;;;;;;;149.67;67.20;;;;;;;;;;4955677;29;20468;-95
2020/12/24 14:41:58;;;;;;;145.77;66.88;;;;;;;;;;5084737;23;20470;-96
2020/12/24 14:47:44;;;;;;;179.93;85.93;;;;;;;;;;5031559;28;20499;-96
2020/12/24 14:50:19;;;;;;;161.00;66.20;;;;;;;;;;5033116;28;20522;-96
2020/12/24 14:56:01;;;;;;;153.93;66.93;;;;;;;;;;5156199;23;20492;-96
2020/12/24 14:58:55;;;;;;;185.80;87.00;;;;;;;;;;5012255;28;20457;-96
2020/12/24 15:01:25;;;;;;;196.80;86.73;;;;;;;;;;5012061;28;20436;-96
2020/12/24 15:06:52;;;;;;;237.83;118.20;;;;;;;;;;4988024;28;20442;-96
2020/12/24 15:09:20;;;;;;;278.70;136.47;;;;;;;;;;5012378;28;20449;-96
2020/12/24 15:11:56;;;;;;;258.57;131.57;;;;;;;;;;5003935;28;20474;-96
2020/12/24 15:14:22;;;;;;;275.13;129.73;;;;;;;;;;4998404;28;20488;-95
2020/12/24 15:17:04;;;;;;;273.30;128.80;;;;;;;;;;5012904;28;20457;-96
2020/12/24 15:19:31;;;;;;;259.10;126.77;;;;;;;;;;4997787;28;20475;-96
2020/12/24 15:21:57;;;;;;;277.57;130.20;;;;;;;;;;5010521;28;20535;-96
2020/12/24 15:24:23;;;;;;;248.03;118.13;;;;;;;;;;5005612;28;20449;-96
2020/12/24 15:26:49;;;;;;;260.95;119.97;;;;;;;;;;5005988;28;20465;-96
2020/12/24 15:29:16;;;;;;;257.40;123.93;;;;;;;;;;5005089;28;20228;-96
2020/12/24 15:31:43;;;;;;;283.43;124.40;;;;;;;;;;4983604;28;20469;-94
2020/12/24 15:34:09;;;;;;;262.98;123.00;;;;;;;;;;4998629;28;20489;-95
2020/12/24 15:36:38;;;;;;;276.53;127.53;;;;;;;;;;5002331;28;20205;-93
2020/12/24 15:39:04;;;;;;;277.00;129.90;;;;;;;;;;4999799;28;20463;-92
2020/12/24 15:41:30;;;;;;;284.23;128.07;;;;;;;;;;5003153;28;20475;-92
2020/12/24 15:43:56;;;;;;;273.00;124.17;;;;;;;;;;5011305;28;20444;-92
2020/12/24 15:46:25;;;;;;;309.93;127.80;;;;;;;;;;5001206;28;20475;-93
2020/12/24 15:48:51;;;;;;;269.37;121.90;;;;;;;;;;4994684;28;20445;-94
2020/12/24 15:51:17;;;;;;;274.33;122.73;;;;;;;;;;4994210;28;20461;-94
2020/12/24 15:53:44;;;;;;;257.10;115.50;;;;;;;;;;4982210;28;20485;-94
2020/12/24 15:56:10;;;;;;;235.10;103.73;;;;;;;;;;4989936;28;20485;-93
2020/12/24 15:58:37;;;;;;;230.53;94.57;;;;;;;;;;5001516;28;20511;-96
2020/12/24 16:01:03;;;;;;;198.63;92.07;;;;;;;;;;5014130;28;20456;-95
2020/12/24 16:03:31;;;;;;;215.60;93.20;;;;;;;;;;5010110;28;20460;-96
2020/12/24 16:05:59;;;;;;;256.43;99.80;;;;;;;;;;5011546;28;20513;-96
2020/12/24 16:08:25;;;;;;;225.60;78.90;;;;;;;;;;5001867;28;20857;-94
2020/12/24 16:10:52;;;;;;;193.27;78.90;;;;;;;;;;5006799;28;20456;-95
2020/12/24 16:13:18;;;;;;;183.33;69.37;;;;;;;;;;5008404;28;20453;-93
2020/12/24 16:15:44;;;;;;;247.17;77.07;;;;;;;;;;5005346;28;20488;-94
2020/12/24 16:18:10;;;;;;;251.17;77.87;;;;;;;;;;5005223;28;20506;-95
2020/12/24 16:20:36;;;;;;;285.33;83.37;;;;;;;;;;5007788;28;20499;-93
2020/12/24 16:23:02;;;;;;;306.23;87.23;;;;;;;;;;5005211;28;20453;-96
2020/12/24 16:25:28;;;;;;;396.43;85.47;;;;;;;;;;5009130;28;20456;-95
2020/12/24 16:27:56;;;;;;;383.33;87.33;;;;;;;;;;5005622;28;20547;-95
2020/12/24 16:30:22;;;;;;;227.27;78.80;;;;;;;;;;5004078;28;20469;-95
2020/12/24 16:32:48;;;;;;;295.23;81.80;;;;;;;;;;5007320;28;20470;-96
2020/12/24 16:35:15;;;;;;;389.20;99.03;;;;;;;;;;5006433;28;20492;-96
2020/12/24 16:37:41;;;;;;;411.47;87.90;;;;;;;;;;5005320;28;21012;-95
2020/12/24 16:40:07;;;;;;;273.20;74.47;;;;;;;;;;5002097;28;20469;-95
2020/12/24 16:42:33;;;;;;;285.33;81.33;;;;;;;;;;5005538;28;20456;-95
2020/12/24 16:45:00;;;;;;;447.40;90.43;;;;;;;;;;5003009;28;20453;-95
2020/12/24 16:47:26;;;;;;;284.73;78.40;;;;;;;;;;5005501;28;20461;-96
2020/12/24 16:49:52;;;;;;;241.83;73.93;;;;;;;;;;5003270;28;20453;-93
2020/12/24 16:52:18;;;;;;;312.93;80.20;;;;;;;;;;5004692;28;20471;-95
2020/12/24 16:54:44;;;;;;;483.77;97.87;;;;;;;;;;5002207;28;20499;-96
2020/12/24 16:57:10;;;;;;;446.40;96.77;;;;;;;;;;5008590;28;20489;-95
2020/12/24 16:59:36;;;;;;;463.43;95.60;;;;;;;;;;5011701;28;20452;-95
2020/12/24 17:02:03;;;;;;;470.53;93.03;;;;;;;;;;5003432;28;20452;-95
2020/12/24 17:04:29;;;;;;;459.13;96.40;;;;;;;;;;5005851;28;20467;-95
2020/12/24 17:06:57;;;;;;;542.97;100.37;;;;;;;;;;4988299;28;20459;-95
2020/12/24 17:09:23;;;;;;;390.90;78.00;;;;;;;;;;5009044;28;20467;-96
2020/12/24 17:11:51;;;;;;;297.13;71.30;;;;;;;;;;5010589;28;20464;-96
2020/12/24 17:14:17;;;;;;;268.83;65.70;;;;;;;;;;5008715;28;20488;-96
2020/12/24 17:16:43;;;;;;;352.00;74.28;;;;;;;;;;5009904;28;20536;-96
2020/12/24 17:19:10;;;;;;;289.90;71.03;;;;;;;;;;5007699;28;20211;-96
2020/12/24 17:21:36;;;;;;;349.13;71.20;;;;;;;;;;5005021;28;20465;-96
2020/12/24 17:24:02;;;;;;;394.23;70.30;;;;;;;;;;5004350;28;20455;-96
2020/12/24 17:26:29;;;;;;;346.27;70.67;;;;;;;;;;5015722;28;20477;-96
2020/12/24 17:28:56;;;;;;;334.40;70.40;;;;;;;;;;5025788;28;20444;-96
2020/12/24 17:31:23;;;;;;;512.83;83.60;;;;;;;;;;5006423;28;20453;-96
2020/12/24 17:33:49;;;;;;;344.00;71.43;;;;;;;;;;5004948;28;20461;-96
2020/12/24 17:36:16;;;;;;;441.77;77.50;;;;;;;;;;5003529;28;20467;-96
2020/12/24 17:38:43;;;;;;;422.90;81.77;;;;;;;;;;5003913;28;20483;-96
2020/12/24 17:41:10;;;;;;;539.47;113.03;;;;;;;;;;5002211;28;20521;-96
2020/12/24 17:43:36;;;;;;;494.67;127.17;;;;;;;;;;5004956;28;20465;-96
2020/12/24 17:46:02;;;;;;;620.60;136.45;;;;;;;;;;5003000;28;20468;-96
2020/12/24 17:48:28;;;;;;;475.10;123.67;;;;;;;;;;5005126;28;20220;-96
2020/12/24 17:50:54;;;;;;;608.30;130.85;;;;;;;;;;5005067;28;20470;-95
2020/12/24 17:53:21;;;;;;;382.17;116.93;;;;;;;;;;5012160;28;20205;-96
2020/12/24 17:55:47;;;;;;;482.57;136.27;;;;;;;;;;5005270;28;20247;-96
2020/12/24 17:58:14;;;;;;;590.03;130.90;;;;;;;;;;4988801;28;20459;-96
2020/12/24 18:00:40;;;;;;;455.20;114.50;;;;;;;;;;4985507;28;20473;-96
2020/12/24 18:03:06;;;;;;;569.93;107.53;;;;;;;;;;5001090;28;20206;-96
2020/12/24 18:05:32;;;;;;;403.27;90.93;;;;;;;;;;5003391;28;20464;-96
2020/12/24 18:07:58;;;;;;;321.97;88.73;;;;;;;;;;5000125;28;20222;-94
2020/12/24 18:10:25;;;;;;;443.13;97.63;;;;;;;;;;5002817;28;20518;-95
2020/12/24 18:12:51;;;;;;;470.38;108.22;;;;;;;;;;5001642;28;21153;-96
2020/12/24 18:15:17;;;;;;;608.80;120.43;;;;;;;;;;5003192;28;20234;-96
2020/12/24 18:17:44;;;;;;;739.53;134.93;;;;;;;;;;5003170;28;20453;-94
2020/12/24 18:20:10;;;;;;;406.60;95.87;;;;;;;;;;5003564;28;20521;-96
2020/12/24 18:22:36;;;;;;;554.80;120.03;;;;;;;;;;5003460;28;20460;-96
2020/12/24 18:25:02;;;;;;;522.70;116.37;;;;;;;;;;5010339;28;20211;-96
2020/12/24 18:27:36;;;;;;;341.10;96.57;;;;;;;;;;5023423;28;20448;-96
2020/12/24 18:30:02;;;;;;;385.07;93.03;;;;;;;;;;5010358;28;20458;-96
2020/12/24 18:32:37;;;;;;;279.13;75.30;;;;;;;;;;5009219;28;20534;-96
2020/12/24 18:40:32;;;;;;;210.37;60.70;;;;;;;;;;5000868;28;20457;-96
2020/12/24 18:45:43;;;;;;;190.30;56.00;;;;;;;;;;5012496;28;20213;-96
2020/12/24 18:48:13;;;;;;;240.67;63.57;;;;;;;;;;5012022;28;20198;-96
2020/12/24 18:53:24;;;;;;;179.17;54.90;;;;;;;;;;5017336;28;20542;-96
2020/12/24 18:55:51;;;;;;;166.63;54.40;;;;;;;;;;5030255;28;20516;-96
2020/12/24 18:58:48;;;;;;;141.27;47.57;;;;;;;;;;5015810;28;20440;-96
2020/12/24 19:01:15;;;;;;;214.18;52.42;;;;;;;;;;5010715;28;20441;-96
2020/12/24 19:03:41;;;;;;;178.57;51.93;;;;;;;;;;5007587;28;20220;-96
2020/12/24 19:06:15;;;;;;;186.13;51.80;;;;;;;;;;5003400;28;20476;-96
2020/12/24 19:08:42;;;;;;;168.97;55.23;;;;;;;;;;5001826;28;20459;-95
2020/12/24 19:11:08;;;;;;;170.37;56.17;;;;;;;;;;5007245;28;20474;-96
2020/12/24 19:13:35;;;;;;;248.75;67.50;;;;;;;;;;5013175;28;20448;-95
2020/12/24 19:16:01;;;;;;;214.70;63.50;;;;;;;;;;5003101;28;20230;-96
2020/12/24 19:18:28;;;;;;;175.80;55.15;;;;;;;;;;5000890;28;20301;-96
2020/12/24 19:20:54;;;;;;;175.97;56.60;;;;;;;;;;5004181;28;20237;-96
2020/12/24 19:23:20;;;;;;;189.02;57.45;;;;;;;;;;5003582;28;20479;-96
2020/12/24 19:25:47;;;;;;;340.55;68.90;;;;;;;;;;4998631;28;20231;-96
2020/12/24 19:28:13;;;;;;;365.93;75.73;;;;;;;;;;5003149;28;20382;-96
2020/12/24 19:30:39;;;;;;;255.73;72.87;;;;;;;;;;5001511;28;20454;-95
2020/12/24 19:33:05;;;;;;;260.77;80.72;;;;;;;;;;5002879;28;20457;-96
2020/12/24 19:35:32;;;;;;;498.27;115.50;;;;;;;;;;5006734;28;20225;-96
2020/12/24 19:37:58;;;;;;;555.88;115.03;;;;;;;;;;5003245;28;20477;-96
2020/12/24 19:40:24;;;;;;;431.75;106.25;;;;;;;;;;5000787;28;20212;-96
2020/12/24 19:42:51;;;;;;;385.83;127.07;;;;;;;;;;5008612;28;20268;-96
2020/12/24 19:45:17;;;;;;;496.10;182.88;;;;;;;;;;5009907;28;20521;-96
2020/12/24 19:47:44;;;;;;;570.25;168.05;;;;;;;;;;5009731;28;20211;-96
2020/12/24 19:50:18;;;;;;;488.37;108.90;;;;;;;;;;5016127;28;20203;-96
2020/12/24 19:52:45;;;;;;;319.27;100.25;;;;;;;;;;5012104;28;20468;-96
2020/12/24 20:01:09;;;;;;;300.92;79.30;;;;;;;;;;4959357;28;20202;-96
2020/12/24 20:03:39;;;;;;;558.85;108.60;;;;;;;;;;4985914;28;20278;-96
2020/12/24 20:08:56;;;;;;;590.38;124.82;;;;;;;;;;4907301;29;20192;-96
2020/12/24 20:11:22;;;;;;;321.63;89.27;;;;;;;;;;4964184;28;20216;-96
2020/12/24 20:13:48;;;;;;;667.45;133.85;;;;;;;;;;4983211;28;20460;-96
2020/12/24 20:16:20;;;;;;;680.13;125.15;;;;;;;;;;5004090;23;20242;-96
2020/12/24 20:18:46;;;;;;;398.95;99.18;;;;;;;;;;5022236;28;20206;-96
2020/12/24 20:21:14;;;;;;;337.00;78.85;;;;;;;;;;5021560;28;20183;-96
2020/12/24 20:23:40;;;;;;;361.50;77.53;;;;;;;;;;5021246;28;20183;-96
2020/12/24 20:26:08;;;;;;;327.73;77.25;;;;;;;;;;5021575;28;20442;-96
2020/12/24 20:28:36;;;;;;;256.47;63.10;;;;;;;;;;5029466;23;20220;-96
2020/12/24 20:31:04;;;;;;;264.10;66.87;;;;;;;;;;5039566;28;20499;-96
2020/12/24 20:43:52;;;;;;;188.30;62.35;;;;;;;;;;5409338;23;20230;-96
2020/12/24 20:46:36;;;;;;;327.83;74.47;;;;;;;;;;5157021;23;21310;-96
2020/12/24 21:12:30;;;;;;;205.97;65.90;;;;;;;;;;5036567;28;20226;-96
2020/12/24 21:22:46;;;;;;;217.80;69.30;;;;;;;;;;5071589;23;20243;-96
2020/12/24 21:25:15;;;;;;;226.73;69.93;;;;;;;;;;5012081;28;20539;-96
2020/12/24 21:27:46;;;;;;;180.25;67.15;;;;;;;;;;4995350;28;20209;-96
2020/12/24 21:30:14;;;;;;;252.75;71.80;;;;;;;;;;5010095;28;20208;-96
2020/12/24 21:32:41;;;;;;;217.75;68.30;;;;;;;;;;5010214;28;20229;-96
2020/12/24 21:35:07;;;;;;;225.30;69.78;;;;;;;;;;4996005;28;20232;-96
2020/12/24 21:37:52;;;;;;;214.50;68.15;;;;;;;;;;4998586;28;20222;-96
2020/12/24 21:40:19;;;;;;;198.60;71.70;;;;;;;;;;4996351;28;20205;-96
2020/12/24 21:42:55;;;;;;;199.68;72.47;;;;;;;;;;5007934;28;20457;-96
2020/12/24 21:45:23;;;;;;;284.95;77.68;;;;;;;;;;4995956;28;20208;-96
2020/12/24 21:47:55;;;;;;;193.80;70.72;;;;;;;;;;4999034;28;20356;-96
2020/12/24 21:50:27;;;;;;;215.80;75.10;;;;;;;;;;5000884;28;20201;-96
2020/12/24 21:56:05;;;;;;;191.20;74.22;;;;;;;;;;4999511;28;20239;-96
2020/12/24 21:58:35;;;;;;;283.10;83.32;;;;;;;;;;5001263;28;20210;-96
2020/12/24 22:20:41;;;;;;;258.23;72.00;;;;;;;;;;5022235;28;20200;-96
2020/12/24 22:23:07;;;;;;;305.08;78.97;;;;;;;;;;5049165;28;20271;-96
2020/12/24 22:25:34;;;;;;;251.43;77.25;;;;;;;;;;5048346;28;20209;-96
2020/12/24 22:28:01;;;;;;;281.10;79.78;;;;;;;;;;5031375;28;20211;-96
2020/12/24 22:30:27;;;;;;;303.70;90.30;;;;;;;;;;5027827;28;20206;-96
2020/12/24 22:32:59;;;;;;;324.05;85.43;;;;;;;;;;5030586;28;20252;-95
2020/12/24 22:35:25;;;;;;;311.50;72.00;;;;;;;;;;5008131;28;20304;-96
2020/12/24 22:37:51;;;;;;;294.77;74.75;;;;;;;;;;5021432;28;20263;-95
2020/12/24 22:40:17;;;;;;;356.00;79.78;;;;;;;;;;5032357;28;20200;-96
2020/12/24 22:42:44;;;;;;;368.70;108.38;;;;;;;;;;5034642;28;20251;-96
2020/12/24 22:45:10;;;;;;;328.20;90.57;;;;;;;;;;5030385;28;20204;-96
2020/12/24 22:47:39;;;;;;;400.70;100.82;;;;;;;;;;5029500;28;20273;-96
2020/12/24 22:50:11;;;;;;;438.77;103.15;;;;;;;;;;5008170;28;20220;-95
2020/12/24 22:52:38;;;;;;;462.02;102.47;;;;;;;;;;5031007;28;20271;-96